Time;durP1;ratioP1;P1;durP2;ratioP2;P2;SDS_P1;SDS_P2;PMS_P1;PMS_P2;Temp;Humidity;BMP_temperature;BMP_pressure;BME280_temperature;BME280_humidity;BME280_pressure;Samples;Min_cycle;Max_cycle;Signal;HPM_P1;HPM_P2
2022/08/07 00:00:41;;;;;;;8.05;5.28;;;;;;;10.91;89.10;102558.63;5092141;28;20486;-49
2022/08/07 00:03:08;;;;;;;9.48;5.55;;;;;;;10.87;90.04;102558.47;5092689;28;20459;-43
2022/08/07 00:05:33;;;;;;;7.80;5.18;;;;;;;10.92;90.33;102557.81;5092768;28;20028;-49
2022/08/07 00:07:59;;;;;;;7.03;5.35;;;;;;;10.92;90.02;102555.25;5092249;28;20024;-48
2022/08/07 00:10:24;;;;;;;9.90;6.38;;;;;;;10.89;90.31;102560.25;5092754;28;20065;-48
2022/08/07 00:12:49;;;;;;;8.18;5.72;;;;;;;10.97;90.29;102553.81;5092369;28;20456;-47
2022/08/07 00:15:15;;;;;;;9.98;6.15;;;;;;;10.96;89.99;102554.59;5092247;28;20460;-49
2022/08/07 00:17:41;;;;;;;9.52;6.18;;;;;;;10.96;89.91;102550.34;5092244;28;20048;-45
2022/08/07 00:20:06;;;;;;;7.40;5.32;;;;;;;10.79;89.70;102546.81;5092601;28;20047;-49
2022/08/07 00:22:32;;;;;;;8.32;6.00;;;;;;;10.74;90.38;102540.50;5095399;28;20024;-47
2022/08/07 00:24:57;;;;;;;11.27;6.20;;;;;;;10.67;90.65;102543.56;5096328;28;20024;-49
2022/08/07 00:27:22;;;;;;;9.50;6.32;;;;;;;10.58;90.77;102545.63;5096772;28;20024;-47
2022/08/07 00:29:48;;;;;;;8.70;6.10;;;;;;;10.52;91.03;102543.56;5095873;28;20025;-49
2022/08/07 00:32:14;;;;;;;8.60;5.75;;;;;;;10.58;90.69;102537.88;5096163;28;20425;-49
2022/08/07 00:34:40;;;;;;;8.88;6.50;;;;;;;10.60;91.63;102525.94;5096573;28;20081;-48
2022/08/07 00:37:05;;;;;;;8.93;6.22;;;;;;;10.54;90.53;102532.53;5095809;28;20016;-49
2022/08/07 00:39:31;;;;;;;9.63;6.68;;;;;;;10.60;91.49;102528.53;5096351;28;20024;-49
2022/08/07 00:41:58;;;;;;;9.55;6.78;;;;;;;10.43;92.49;102533.63;5096205;28;20028;-49
2022/08/07 00:44:24;;;;;;;10.63;6.68;;;;;;;10.32;92.01;102526.94;5095531;28;20395;-47
2022/08/07 00:46:49;;;;;;;9.57;6.32;;;;;;;10.29;92.76;102521.59;5095831;28;20032;-47
2022/08/07 00:49:14;;;;;;;8.00;6.95;;;;;;;10.37;93.57;102525.53;5095707;28;20028;-48
2022/08/07 00:51:40;;;;;;;10.30;8.00;;;;;;;10.43;93.78;102525.91;5095918;28;20031;-49
2022/08/07 00:54:06;;;;;;;9.20;7.43;;;;;;;10.50;93.77;102525.44;5096096;28;20441;-46
2022/08/07 00:56:32;;;;;;;10.75;7.93;;;;;;;10.51;93.64;102527.22;5095594;28;20028;-48
2022/08/07 00:58:57;;;;;;;10.50;8.02;;;;;;;10.40;93.92;102520.56;5095541;28;20029;-46
2022/08/07 01:01:23;;;;;;;13.20;7.20;;;;;;;10.26;93.71;102516.28;5096015;28;20028;-49
2022/08/07 01:03:50;;;;;;;10.77;7.75;;;;;;;10.25;94.15;102517.06;5095047;28;20031;-49
2022/08/07 01:06:16;;;;;;;13.38;8.25;;;;;;;10.28;94.68;102512.97;5095689;28;20107;-47
2022/08/07 01:08:42;;;;;;;13.38;7.60;;;;;;;10.12;93.89;102513.78;5095781;28;20506;-48
2022/08/07 01:11:07;;;;;;;11.07;7.80;;;;;;;10.19;94.37;102512.47;5095358;28;20422;-49
2022/08/07 01:13:34;;;;;;;12.45;8.98;;;;;;;10.20;94.99;102514.25;5095545;28;20063;-48
2022/08/07 01:16:00;;;;;;;14.15;7.60;;;;;;;10.16;94.29;102512.25;5095467;28;20052;-46
2022/08/07 01:18:28;;;;;;;11.70;7.75;;;;;;;10.02;93.97;102514.06;5095131;28;20024;-48
2022/08/07 01:21:13;;;;;;;;;;;;;;;10.21;91.18;102509.16;5095517;28;20032;-48
2022/08/07 01:23:41;;;;;;;14.27;8.45;;;;;;;9.99;94.44;102511.28;5095026;28;20267;-48
2022/08/07 01:26:07;;;;;;;;;;;;;;;10.14;90.87;102503.56;5095536;28;20044;-50
2022/08/07 01:28:32;;;;;;;14.27;10.35;;;;;;;10.03;95.48;102505.50;5095244;28;19912;-48
2022/08/07 01:31:00;;;;;;;13.57;8.50;;;;;;;10.01;95.36;102501.97;5095166;28;20081;-49
2022/08/07 01:33:25;;;;;;;14.00;10.70;;;;;;;10.14;96.68;102498.41;5094299;28;20032;-49
2022/08/07 01:35:50;;;;;;;13.55;9.95;;;;;;;10.19;96.34;102495.28;5095065;28;20379;-49
2022/08/07 01:38:16;;;;;;;13.43;9.60;;;;;;;10.21;96.07;102501.44;5095428;28;20024;-49
2022/08/07 01:40:44;;;;;;;13.00;9.68;;;;;;;10.14;95.52;102499.28;5094699;28;20031;-48
2022/08/07 01:43:09;;;;;;;11.35;9.38;;;;;;;10.08;95.79;102493.78;5094836;28;20110;-48
2022/08/07 01:45:35;;;;;;;13.90;8.80;;;;;;;9.83;94.97;102491.47;5094547;28;20111;-47
2022/08/07 01:48:01;;;;;;;13.30;9.43;;;;;;;9.86;95.79;102492.56;5095088;28;20032;-49
2022/08/07 01:50:28;;;;;;;15.40;9.63;;;;;;;9.92;96.08;102496.28;5095037;28;20026;-49
2022/08/07 01:52:56;;;;;;;14.30;9.82;;;;;;;9.92;96.59;102493.72;5094345;28;20034;-48
2022/08/07 01:55:28;;;;;;;14.13;10.43;;;;;;;9.93;97.13;102492.88;5094906;28;20028;-48
2022/08/07 01:57:58;;;;;;;12.75;9.63;;;;;;;9.78;96.38;102492.88;5094687;28;20073;-44
2022/08/07 02:00:27;;;;;;;14.02;10.15;;;;;;;9.77;97.04;102489.41;5094550;28;20024;-49
2022/08/07 02:02:56;;;;;;;12.05;9.45;;;;;;;9.62;96.67;102489.41;5094523;28;20020;-48
2022/08/07 02:05:26;;;;;;;13.60;9.23;;;;;;;9.58;97.27;102490.03;5095012;28;20119;-48
2022/08/07 02:07:53;;;;;;;16.17;10.43;;;;;;;9.72;97.81;102483.09;5094004;28;20024;-48
2022/08/07 02:10:23;;;;;;;13.95;10.63;;;;;;;9.68;97.93;102487.19;5094808;28;20395;-47
2022/08/07 02:12:50;;;;;;;14.20;11.07;;;;;;;9.68;98.30;102491.44;5094280;28;20035;-49
2022/08/07 02:15:21;;;;;;;12.35;8.98;;;;;;;9.50;97.32;102492.13;5093987;28;20463;-48
2022/08/07 02:17:48;;;;;;;13.38;9.43;;;;;;;9.54;96.94;102483.78;5094284;28;20028;-47
2022/08/07 02:20:15;;;;;;;10.70;8.40;;;;;;;9.36;96.49;102487.81;5094706;28;20024;-48
2022/08/07 02:22:41;;;;;;;17.35;11.00;;;;;;;9.36;97.58;102481.00;5093716;28;20026;-47
2022/08/07 02:25:08;;;;;;;11.95;9.27;;;;;;;9.28;96.95;102474.47;5094176;28;20099;-48
2022/08/07 02:27:35;;;;;;;14.75;10.63;;;;;;;9.25;97.42;102483.72;5093801;28;20028;-49
2022/08/07 02:30:01;;;;;;;15.07;11.90;;;;;;;9.32;98.58;102481.59;5094232;28;20064;-49
2022/08/07 02:32:27;;;;;;;13.88;9.73;;;;;;;9.40;98.04;102484.66;5094040;28;20073;-48
2022/08/07 02:34:55;;;;;;;14.88;9.50;;;;;;;9.33;97.28;102477.34;5093367;28;20020;-47
2022/08/07 02:37:22;;;;;;;15.65;11.38;;;;;;;9.36;98.34;102475.84;5094009;28;20034;-48
2022/08/07 02:39:48;;;;;;;20.45;13.95;;;;;;;9.53;100.00;102476.84;5093889;28;20511;-47
2022/08/07 02:42:15;;;;;;;18.13;12.68;;;;;;;9.58;100.00;102473.66;5093723;28;20024;-45
2022/08/07 02:44:43;;;;;;;17.55;13.52;;;;;;;9.60;100.00;102474.66;5092913;28;20040;-45
2022/08/07 02:47:11;;;;;;;17.77;13.30;;;;;;;9.51;100.00;102472.41;5094394;28;20028;-48
2022/08/07 02:49:37;;;;;;;15.63;11.98;;;;;;;9.48;99.93;102473.13;5093418;28;20115;-47
2022/08/07 02:52:07;;;;;;;18.50;11.60;;;;;;;9.33;99.23;102472.19;5093403;28;20032;-47
2022/08/07 02:54:36;;;;;;;15.60;11.68;;;;;;;9.29;99.59;102472.81;5093923;28;20027;-49
2022/08/07 02:57:03;;;;;;;13.02;9.80;;;;;;;9.22;98.81;102463.84;5093271;28;20020;-48
2022/08/07 02:59:31;;;;;;;16.77;11.90;;;;;;;9.21;99.43;102468.06;5093690;28;20035;-48
2022/08/07 03:01:56;;;;;;;;;;;;;;;9.37;97.09;102467.34;5094014;28;20143;-48
2022/08/07 03:04:22;;;;;;;13.10;10.20;;;;;;;9.35;97.97;102466.34;5093172;28;20006;-47
2022/08/07 03:06:49;;;;;;;12.52;9.93;;;;;;;9.25;97.46;102469.16;5093137;28;20031;-49
2022/08/07 03:09:17;;;;;;;12.93;11.05;;;;;;;9.25;98.06;102460.56;5093589;28;20024;-48
2022/08/07 03:11:43;;;;;;;14.90;11.32;;;;;;;9.16;98.06;102464.31;5092817;28;20069;-49
2022/08/07 03:14:08;;;;;;;12.82;10.07;;;;;;;9.03;97.91;102467.81;5093487;28;20413;-48
2022/08/07 03:16:34;;;;;;;16.20;11.10;;;;;;;9.06;98.19;102469.69;5093807;28;20019;-49
2022/08/07 03:19:00;;;;;;;16.52;12.80;;;;;;;8.99;99.08;102467.56;5092759;28;20024;-48
2022/08/07 03:21:26;;;;;;;15.27;11.63;;;;;;;8.92;98.88;102465.38;5093090;28;20023;-49
2022/08/07 03:23:57;;;;;;;18.17;12.68;;;;;;;8.84;99.28;102467.47;5092431;28;20365;-49
2022/08/07 03:26:26;;;;;;;15.32;12.30;;;;;;;8.80;99.63;102465.50;5093238;28;20024;-48
2022/08/07 03:28:54;;;;;;;13.98;10.50;;;;;;;8.69;98.72;102463.16;5093106;28;20150;-49
2022/08/07 03:31:21;;;;;;;15.55;11.65;;;;;;;8.67;98.80;102467.28;5092862;28;20029;-47
2022/08/07 03:33:53;;;;;;;13.07;10.75;;;;;;;8.68;99.48;102470.78;5092663;28;20059;-49
2022/08/07 03:36:22;;;;;;;15.02;11.65;;;;;;;8.72;99.77;102463.34;5093403;28;20114;-46
2022/08/07 03:38:48;;;;;;;13.50;10.52;;;;;;;8.55;99.31;102462.28;5092536;28;20025;-49
2022/08/07 03:41:14;;;;;;;13.55;10.88;;;;;;;8.60;99.57;102459.09;5093073;28;20028;-49
2022/08/07 03:43:41;;;;;;;13.85;11.45;;;;;;;8.55;99.80;102458.81;5092901;28;20051;-47
2022/08/07 03:46:07;;;;;;;17.52;13.07;;;;;;;8.66;100.00;102460.41;5092570;28;20164;-49
2022/08/07 03:48:33;;;;;;;18.45;14.40;;;;;;;8.82;100.00;102462.25;5092829;28;20024;-48
2022/08/07 03:51:00;;;;;;;21.30;17.38;;;;;;;8.87;100.00;102455.72;5092950;28;20051;-43
2022/08/07 03:53:26;;;;;;;21.73;17.70;;;;;;;8.96;100.00;102459.63;5092465;28;20028;-48
2022/08/07 03:55:52;;;;;;;22.10;17.00;;;;;;;9.07;100.00;102463.75;5094012;28;20032;-49
2022/08/07 03:58:20;;;;;;;17.35;13.88;;;;;;;9.02;100.00;102470.31;5099705;28;20486;-48
2022/08/07 04:00:45;;;;;;;;;;;;;;;9.08;100.00;102465.53;5099245;28;20164;-49
2022/08/07 04:03:11;;;;;;;18.33;13.93;;;;;;;9.10;100.00;102469.09;5099400;28;19921;-48
2022/08/07 04:05:36;;;;;;;20.15;15.02;;;;;;;9.01;100.00;102468.53;5099678;28;20035;-46
2022/08/07 04:08:02;;;;;;;14.30;12.60;;;;;;;9.02;100.00;102480.59;5098837;28;20515;-47
2022/08/07 04:10:29;;;;;;;16.70;14.40;;;;;;;9.02;100.00;102473.75;5099597;28;20023;-44
2022/08/07 04:12:54;;;;;;;17.48;14.30;;;;;;;9.00;100.00;102477.03;5099239;28;20033;-44
2022/08/07 04:15:20;;;;;;;18.35;13.73;;;;;;;8.88;100.00;102480.63;5099070;28;20031;-46
2022/08/07 04:17:45;;;;;;;19.48;14.32;;;;;;;8.94;100.00;102476.66;5098926;28;20391;-45
2022/08/07 04:20:12;;;;;;;18.90;15.13;;;;;;;8.97;100.00;102489.69;5099161;28;20020;-45
2022/08/07 04:22:40;;;;;;;17.25;13.68;;;;;;;8.96;100.00;102495.63;5099231;28;20020;-48
2022/08/07 04:25:07;;;;;;;18.08;14.75;;;;;;;8.96;100.00;102495.63;5099679;28;20115;-43
2022/08/07 04:27:33;;;;;;;15.35;12.70;;;;;;;8.70;100.00;102495.78;5099027;28;20056;-44
2022/08/07 04:29:58;;;;;;;17.55;12.88;;;;;;;8.63;100.00;102492.72;5098835;28;20044;-45
2022/08/07 04:32:24;;;;;;;15.05;12.05;;;;;;;8.53;99.84;102491.22;5099326;28;20498;-47
2022/08/07 04:34:50;;;;;;;19.02;15.20;;;;;;;8.62;100.00;102498.66;5098823;28;20384;-44
2022/08/07 04:37:16;;;;;;;20.63;16.23;;;;;;;8.75;100.00;102496.06;5099229;28;20111;-50
2022/08/07 04:39:41;;;;;;;19.10;13.43;;;;;;;8.63;100.00;102490.16;5099138;28;20044;-48
2022/08/07 04:42:06;;;;;;;17.10;14.50;;;;;;;8.63;100.00;102487.59;5098756;28;20028;-49
2022/08/07 04:44:32;;;;;;;17.20;13.05;;;;;;;8.56;100.00;102489.75;5098679;28;20074;-44
2022/08/07 04:47:26;;;;;;;15.45;12.85;;;;;;;8.58;100.00;102492.41;5099043;28;20020;-47
2022/08/07 04:50:01;;;;;;;19.10;14.18;;;;;;;8.54;100.00;102496.47;5098499;28;20368;-49
2022/08/07 04:52:49;;;;;;;17.77;15.25;;;;;;;8.64;100.00;102502.22;5098826;28;20023;-49
2022/08/07 04:55:35;;;;;;;18.15;15.07;;;;;;;8.67;100.00;102498.13;5098666;28;20055;-45
2022/08/07 04:58:19;;;;;;;21.60;16.85;;;;;;;8.78;100.00;102503.06;5098826;28;20039;-44
2022/08/07 05:00:54;;;;;;;21.77;15.70;;;;;;;8.81;100.00;102499.03;5098872;28;20020;-48
2022/08/07 05:03:45;;;;;;;27.27;20.48;;;;;;;8.96;100.00;102500.78;5098588;28;20027;-47
2022/08/07 05:06:21;;;;;;;25.40;20.65;;;;;;;9.07;100.00;102500.66;5098824;28;20160;-49
2022/08/07 05:08:52;;;;;;;25.63;19.17;;;;;;;9.10;100.00;102499.94;5095020;28;20031;-48
2022/08/07 05:11:31;;;;;;;23.95;20.15;;;;;;;9.21;100.00;102504.09;5095320;28;20020;-47
2022/08/07 05:14:01;;;;;;;29.60;22.65;;;;;;;9.35;100.00;102498.91;5095208;28;20383;-48
2022/08/07 05:16:30;;;;;;;28.55;21.75;;;;;;;9.46;100.00;102499.56;5095343;28;20115;-49
2022/08/07 05:19:03;;;;;;;30.60;22.77;;;;;;;9.56;100.00;102502.78;5095433;28;20019;-45
2022/08/07 05:21:30;;;;;;;31.75;23.20;;;;;;;9.64;100.00;102494.63;5095778;28;20028;-43
2022/08/07 05:24:05;;;;;;;28.35;21.80;;;;;;;9.79;100.00;102503.28;5094870;28;20051;-49
2022/08/07 05:26:32;;;;;;;32.92;21.27;;;;;;;9.91;100.00;102512.53;5095180;28;20046;-47
2022/08/07 05:29:00;;;;;;;27.17;20.85;;;;;;;9.95;100.00;102517.06;5095407;28;20016;-49
2022/08/07 05:31:32;;;;;;;25.77;19.13;;;;;;;10.04;100.00;102512.44;5095023;28;20034;-49
2022/08/07 05:33:58;;;;;;;27.50;20.92;;;;;;;10.14;100.00;102514.75;5094831;28;20383;-46
2022/08/07 05:36:24;;;;;;;26.17;20.65;;;;;;;10.24;100.00;102510.13;5095414;28;20028;-49
2022/08/07 05:38:52;;;;;;;28.13;20.98;;;;;;;10.36;100.00;102516.03;5094547;28;20028;-46
2022/08/07 05:41:17;;;;;;;28.10;19.38;;;;;;;10.42;100.00;102516.38;5095339;28;20127;-49
2022/08/07 05:43:47;;;;;;;25.10;20.33;;;;;;;10.55;100.00;102517.97;5094962;28;20135;-49
2022/08/07 05:46:15;;;;;;;28.48;21.38;;;;;;;10.66;100.00;102516.00;5094652;28;20028;-44
2022/08/07 05:48:41;;;;;;;29.38;20.27;;;;;;;10.76;100.00;102515.69;5094779;28;20031;-44
2022/08/07 05:51:08;;;;;;;24.80;19.38;;;;;;;10.87;100.00;102517.19;5095165;28;20047;-44
2022/08/07 05:53:33;;;;;;;28.02;21.63;;;;;;;10.98;100.00;102504.88;5094313;28;20066;-48
2022/08/07 05:55:59;;;;;;;25.70;20.48;;;;;;;11.05;100.00;102511.25;5094773;28;20052;-44
2022/08/07 05:58:26;;;;;;;29.17;20.23;;;;;;;11.22;100.00;102516.44;5094932;28;20103;-44
2022/08/07 06:00:53;;;;;;;27.15;19.98;;;;;;;11.34;100.00;102515.41;5093927;28;20028;-45
2022/08/07 06:03:21;;;;;;;26.05;18.58;;;;;;;11.42;100.00;102515.81;5094919;28;20421;-47
2022/08/07 06:05:47;;;;;;;28.05;20.58;;;;;;;11.55;100.00;102519.91;5093979;28;20554;-44
2022/08/07 06:08:14;;;;;;;27.30;19.33;;;;;;;11.65;100.00;102519.59;5094456;28;20071;-44
2022/08/07 06:10:40;;;;;;;24.90;18.30;;;;;;;11.77;100.00;102516.75;5094850;28;20024;-45
2022/08/07 06:13:08;;;;;;;24.50;18.75;;;;;;;11.90;100.00;102519.97;5094173;28;20028;-49
2022/08/07 06:15:38;;;;;;;23.73;17.20;;;;;;;11.98;100.00;102516.09;5094367;28;20486;-47
2022/08/07 06:18:04;;;;;;;27.05;19.17;;;;;;;12.07;100.00;102516.59;5094266;28;20383;-44
2022/08/07 06:20:30;;;;;;;23.40;18.02;;;;;;;12.22;99.96;102520.75;5093908;28;20016;-44
2022/08/07 06:22:56;;;;;;;23.77;17.48;;;;;;;12.29;99.26;102522.81;5093897;28;20024;-45
2022/08/07 06:25:21;;;;;;;24.60;18.23;;;;;;;12.45;99.01;102524.47;5094576;28;20068;-45
2022/08/07 06:27:47;;;;;;;23.73;18.00;;;;;;;12.52;97.80;102527.44;5093633;28;20111;-45
2022/08/07 06:30:13;;;;;;;23.25;17.17;;;;;;;12.64;96.35;102527.13;5094214;28;20065;-49
2022/08/07 06:32:38;;;;;;;22.08;16.55;;;;;;;12.76;94.34;102525.94;5094073;28;20035;-44
2022/08/07 06:35:04;;;;;;;25.55;16.90;;;;;;;12.88;93.81;102525.63;5093611;28;20020;-50
2022/08/07 06:37:29;;;;;;;24.98;17.23;;;;;;;12.98;93.40;102525.25;5093948;28;20028;-49
2022/08/07 06:39:54;;;;;;;23.20;16.92;;;;;;;13.10;94.50;102518.03;5094028;28;20024;-47
2022/08/07 06:42:25;;;;;;;23.98;16.33;;;;;;;13.23;91.82;102523.78;5093678;28;20036;-49
2022/08/07 06:44:51;;;;;;;23.17;16.83;;;;;;;13.36;91.45;102515.75;5093342;28;20483;-47
2022/08/07 06:47:17;;;;;;;21.73;15.88;;;;;;;13.44;88.30;102519.63;5093927;28;20557;-47
2022/08/07 06:49:43;;;;;;;22.98;16.52;;;;;;;13.59;89.73;102515.94;5093043;28;20110;-47
2022/08/07 06:52:10;;;;;;;21.58;15.63;;;;;;;13.74;88.29;102513.13;5093570;28;20028;-48
2022/08/07 06:54:38;;;;;;;21.15;14.80;;;;;;;13.88;87.39;102508.53;5094102;28;20028;-48
2022/08/07 06:57:05;;;;;;;23.08;15.70;;;;;;;13.99;86.98;102499.50;5093007;28;20024;-45
2022/08/07 06:59:41;;;;;;;;;;;;;;;14.01;89.47;102500.47;5094325;28;20035;-44
2022/08/07 07:02:16;;;;;;;18.70;13.70;;;;;;;14.19;83.37;102502.03;5093263;28;19915;-50
2022/08/07 07:04:45;;;;;;;20.08;13.30;;;;;;;14.34;84.84;102502.66;5093140;28;20391;-44
2022/08/07 07:07:10;;;;;;;17.27;12.38;;;;;;;14.42;82.23;102496.09;5093694;28;20027;-47
2022/08/07 07:09:37;;;;;;;19.75;13.10;;;;;;;14.57;81.28;102505.31;5093155;28;20074;-48
2022/08/07 07:12:31;;;;;;;24.35;12.55;;;;;;;14.68;81.86;102511.84;5093236;28;20024;-44
2022/08/07 07:15:07;;;;;;;18.20;11.93;;;;;;;14.84;80.57;102505.53;5093188;28;20093;-45
2022/08/07 07:17:42;;;;;;;20.70;13.07;;;;;;;14.97;80.05;102506.88;5093192;28;20016;-49
2022/08/07 07:20:13;;;;;;;17.63;12.68;;;;;;;15.05;78.77;102515.84;5093307;28;20281;-49
2022/08/07 07:22:41;;;;;;;17.27;12.77;;;;;;;15.15;78.20;102507.56;5093353;28;20051;-45
2022/08/07 07:25:10;;;;;;;17.25;12.40;;;;;;;15.28;78.24;102513.22;5092577;28;20028;-50
2022/08/07 07:27:41;;;;;;;17.85;13.00;;;;;;;15.41;78.30;102515.44;5093549;28;20042;-49
2022/08/07 07:30:08;;;;;;;14.63;11.27;;;;;;;15.50;75.45;102506.22;5092588;28;20489;-49
2022/08/07 07:32:37;;;;;;;15.57;10.97;;;;;;;15.54;74.24;102508.97;5092528;28;20471;-50
2022/08/07 07:35:04;;;;;;;19.75;12.23;;;;;;;15.73;73.56;102502.72;5093024;28;20499;-48
2022/08/07 07:37:32;;;;;;;17.88;11.88;;;;;;;15.84;74.99;102499.63;5092660;28;20031;-50
2022/08/07 07:40:02;;;;;;;14.90;10.32;;;;;;;15.92;73.27;102492.97;5092530;28;20069;-48
2022/08/07 07:42:30;;;;;;;13.02;10.73;;;;;;;16.02;72.56;102494.16;5093374;28;20063;-45
2022/08/07 07:44:56;;;;;;;;;;;;;;;16.12;76.69;102499.72;5092531;28;20040;-45
2022/08/07 07:47:23;;;;;;;12.45;9.77;;;;;;;16.24;71.63;102498.34;5092905;28;19912;-45
2022/08/07 07:49:51;;;;;;;13.60;10.88;;;;;;;16.33;73.17;102489.97;5092884;28;20055;-45
2022/08/07 07:52:17;;;;;;;12.98;10.82;;;;;;;16.40;71.49;102491.94;5092282;28;20087;-45
2022/08/07 07:54:44;;;;;;;15.57;10.27;;;;;;;16.54;71.39;102490.66;5092473;28;20371;-49
2022/08/07 07:57:13;;;;;;;13.45;10.35;;;;;;;16.63;70.92;102490.94;5093046;28;20020;-49
2022/08/07 07:59:40;;;;;;;18.10;9.25;;;;;;;16.75;70.50;102487.81;5092352;28;20031;-46
2022/08/07 08:02:07;;;;;;;12.90;9.55;;;;;;;16.87;69.24;102484.69;5092792;28;20039;-44
2022/08/07 08:04:35;;;;;;;11.50;8.55;;;;;;;16.95;67.67;102490.16;5092997;28;20059;-48
2022/08/07 08:07:01;;;;;;;11.98;8.52;;;;;;;17.04;66.25;102489.56;5091824;28;20511;-48
2022/08/07 08:09:28;;;;;;;12.30;8.63;;;;;;;17.25;68.25;102486.72;5092976;28;20063;-46
2022/08/07 08:11:54;;;;;;;14.82;7.93;;;;;;;17.34;66.87;102494.78;5092428;28;20483;-45
2022/08/07 08:14:20;;;;;;;11.95;8.35;;;;;;;17.48;65.85;102489.06;5092003;28;20054;-46
2022/08/07 08:16:47;;;;;;;11.70;6.95;;;;;;;17.58;65.26;102484.16;5092604;28;20024;-48
2022/08/07 08:19:16;;;;;;;13.07;8.25;;;;;;;17.70;65.07;102490.50;5092256;28;20028;-48
2022/08/07 08:27:21;;;;;;;13.52;7.78;;;;;;;18.01;64.04;102494.84;5092471;28;20039;-47
2022/08/07 08:29:55;;;;;;;9.27;6.70;;;;;;;18.08;64.17;102490.66;5092073;28;20023;-46
2022/08/07 08:32:24;;;;;;;11.43;6.60;;;;;;;18.18;64.02;102494.34;5092828;28;20032;-49
2022/08/07 08:34:52;;;;;;;11.52;6.85;;;;;;;18.31;62.92;102492.91;5092043;28;20229;-45
2022/08/07 08:37:18;;;;;;;;;;;;;;;18.42;63.91;102496.66;5092902;28;20060;-46
2022/08/07 08:39:45;;;;;;;9.35;6.90;;;;;;;18.43;60.20;102496.69;5092420;28;19916;-49
2022/08/07 08:42:17;;;;;;;10.00;6.23;;;;;;;18.61;61.83;102499.72;5091662;28;20032;-44
2022/08/07 08:44:51;;;;;;;14.80;7.30;;;;;;;18.62;59.59;102497.16;5095524;28;20036;-48
2022/08/07 08:47:36;;;;;;;11.65;7.57;;;;;;;18.79;61.77;102504.47;5096493;28;20031;-49
2022/08/07 08:50:08;;;;;;;9.77;6.63;;;;;;;18.96;61.26;102500.50;5096006;28;20028;-49
2022/08/07 08:52:37;;;;;;;10.00;5.88;;;;;;;19.10;58.29;102499.94;5096174;28;20036;-48
2022/08/07 08:55:18;;;;;;;12.20;5.70;;;;;;;19.08;56.48;102490.34;5095749;28;20024;-45
2022/08/07 08:57:57;;;;;;;9.40;6.13;;;;;;;19.14;57.67;102486.09;5095850;28;20024;-46
2022/08/07 09:00:28;;;;;;;9.02;6.00;;;;;;;19.24;57.41;102486.28;5096414;28;20114;-48
2022/08/07 09:03:18;;;;;;;10.13;6.40;;;;;;;19.47;58.17;102487.56;5095277;28;20036;-44
2022/08/07 09:06:05;;;;;;;9.43;6.05;;;;;;;19.53;55.38;102485.09;5095846;28;20017;-45
2022/08/07 09:08:54;;;;;;;13.27;7.20;;;;;;;19.76;58.83;102480.25;5095512;28;20055;-49
2022/08/07 09:12:10;;;;;;;11.63;5.97;;;;;;;19.95;57.58;102484.13;5095663;28;20036;-48
2022/08/07 09:14:44;;;;;;;10.90;6.00;;;;;;;20.13;54.46;102483.53;5095936;28;20032;-46
2022/08/07 09:17:43;;;;;;;8.75;5.88;;;;;;;20.30;54.64;102486.41;5095006;28;20532;-48
2022/08/07 09:20:24;;;;;;;9.13;5.25;;;;;;;20.43;53.04;102484.00;5095944;28;20024;-49
2022/08/07 09:23:21;;;;;;;9.23;5.22;;;;;;;20.58;54.03;102481.59;5094874;28;20573;-51
2022/08/07 09:25:52;;;;;;;;;;;;;;;20.71;55.29;102472.19;5095618;28;20023;-49
2022/08/07 09:28:30;;;;;;;8.05;4.88;;;;;;;20.86;51.94;102475.03;5095340;28;19912;-46
2022/08/07 09:31:05;;;;;;;9.45;4.78;;;;;;;20.96;49.96;102473.38;5094669;28;20031;-48
2022/08/07 09:33:39;;;;;;;8.88;4.50;;;;;;;21.14;48.24;102470.09;5095153;28;20035;-49
2022/08/07 09:36:14;;;;;;;5.85;3.80;;;;;;;21.28;46.07;102472.88;5095305;28;20035;-49
2022/08/07 09:38:57;;;;;;;6.78;4.03;;;;;;;21.41;47.72;102473.00;5094437;28;20528;-45
2022/08/07 09:41:35;;;;;;;7.82;4.63;;;;;;;21.89;47.77;102469.13;5095042;28;20399;-46
2022/08/07 09:44:28;;;;;;;7.65;5.22;;;;;;;22.21;48.94;102471.13;5094528;28;20071;-45
2022/08/07 09:47:22;;;;;;;6.65;4.65;;;;;;;22.34;47.95;102467.69;5094732;28;20044;-50
2022/08/07 09:49:58;;;;;;;8.30;4.30;;;;;;;22.46;44.65;102466.03;5095144;28;20158;-44
2022/08/07 09:52:45;;;;;;;8.68;4.43;;;;;;;22.57;46.29;102461.72;5094274;28;20051;-47
2022/08/07 09:55:21;;;;;;;;;;;;;;;22.81;46.80;102460.06;5095068;28;20047;-46
2022/08/07 09:58:09;;;;;;;7.23;4.53;;;;;;;23.30;43.41;102457.63;5094476;28;19961;-46
2022/08/07 10:00:59;;;;;;;6.95;3.40;;;;;;;23.98;42.06;102447.19;5094867;28;20028;-45
2022/08/07 10:03:41;;;;;;;7.38;3.33;;;;;;;24.12;40.85;102444.53;5094927;28;20020;-45
2022/08/07 10:06:42;;;;;;;5.18;3.47;;;;;;;24.15;39.65;102439.25;5094565;28;20024;-45
2022/08/07 10:09:36;;;;;;;6.85;3.33;;;;;;;24.22;40.36;102439.25;5025692;28;20048;-50
2022/08/07 10:12:23;;;;;;;11.35;4.13;;;;;;;24.76;41.00;102431.19;5093871;28;20103;-49
2022/08/07 10:14:58;;;;;;;6.18;4.22;;;;;;;25.61;38.68;102431.53;5094337;28;20077;-49
2022/08/07 10:17:55;;;;;;;6.82;3.92;;;;;;;26.27;38.71;102424.81;5094647;28;20390;-45
2022/08/07 10:20:58;;;;;;;6.18;4.03;;;;;;;27.28;37.38;102427.00;5093687;28;20451;-50
2022/08/07 10:23:58;;;;;;;7.35;4.00;;;;;;;27.75;34.32;102426.28;5094538;28;20070;-50
2022/08/07 10:26:53;;;;;;;5.90;3.50;;;;;;;28.43;35.32;102430.31;5050822;28;20032;-49
2022/08/07 10:29:24;;;;;;;4.18;2.88;;;;;;;28.89;31.11;102429.34;5094356;28;20028;-46
2022/08/07 10:31:59;;;;;;;8.82;2.88;;;;;;;29.40;31.69;102425.53;5093994;28;20361;-49
2022/08/07 10:34:55;;;;;;;7.88;3.20;;;;;;;29.92;31.31;102432.25;5093463;28;20055;-46
2022/08/07 10:37:44;;;;;;;5.60;2.60;;;;;;;30.38;28.16;102420.31;5094456;28;20036;-48
2022/08/07 10:40:15;;;;;;;4.18;2.20;;;;;;;30.53;27.22;102422.53;5093707;28;20051;-49
2022/08/07 10:43:05;;;;;;;4.22;2.20;;;;;;;31.74;28.76;102432.06;5093590;28;20475;-44
2022/08/07 10:45:37;;;;;;;4.07;2.20;;;;;;;31.65;26.62;102422.59;5094332;28;20044;-47
2022/08/07 10:48:40;;;;;;;4.38;2.45;;;;;;;32.30;27.77;102414.09;5093477;28;20107;-48
2022/08/07 10:51:16;;;;;;;7.18;2.83;;;;;;;32.04;25.46;102418.56;5094177;28;20127;-51
2022/08/07 10:54:04;;;;;;;6.55;2.85;;;;;;;32.63;25.45;102413.75;5093394;28;20495;-50
2022/08/07 10:56:47;;;;;;;8.05;2.10;;;;;;;32.03;24.05;102416.81;5093613;28;20032;-50
2022/08/07 10:59:32;;;;;;;5.47;2.13;;;;;;;32.58;24.78;102408.56;5094185;28;20020;-50
2022/08/07 11:02:05;;;;;;;4.00;2.10;;;;;;;32.62;22.75;102406.66;5092698;28;20030;-50
2022/08/07 11:05:10;;;;;;;4.20;2.17;;;;;;;33.46;23.89;102401.50;5093533;28;20387;-50
2022/08/07 11:07:49;;;;;;;5.00;1.90;;;;;;;33.69;22.50;102404.97;5093442;28;20476;-49
2022/08/07 11:10:30;;;;;;;5.70;1.98;;;;;;;34.06;24.21;102390.88;5093270;28;20071;-50
2022/08/07 11:13:06;;;;;;;5.35;1.88;;;;;;;34.35;22.70;102393.19;5093403;28;20028;-51
2022/08/07 11:15:37;;;;;;;5.03;2.40;;;;;;;34.05;20.92;102389.13;5093213;28;20040;-51
2022/08/07 11:18:13;;;;;;;3.95;2.10;;;;;;;33.63;23.40;102382.91;5093243;28;20034;-51
2022/08/07 11:20:48;;;;;;;6.00;2.00;;;;;;;31.81;23.80;102382.06;5093343;28;20039;-50
2022/08/07 11:23:43;;;;;;;7.95;2.33;;;;;;;29.50;26.32;102374.84;5093061;28;20024;-46
2022/08/07 11:26:25;;;;;;;5.32;2.45;;;;;;;27.83;29.19;102381.09;5062212;28;20054;-50
2022/08/07 11:29:15;;;;;;;5.18;2.47;;;;;;;27.02;30.87;102374.47;5093140;28;20044;-50
2022/08/07 11:31:52;;;;;;;4.25;2.10;;;;;;;27.17;29.74;102364.56;5092758;28;20402;-48
2022/08/07 11:34:49;;;;;;;6.10;2.55;;;;;;;27.65;28.82;102367.28;5093457;28;20024;-50
2022/08/07 11:37:21;;;;;;;5.25;2.63;;;;;;;28.30;27.33;102355.44;5092630;28;20020;-50
2022/08/07 11:39:54;;;;;;;3.92;2.40;;;;;;;28.81;28.12;102354.38;5092928;28;20032;-49
2022/08/07 11:42:32;;;;;;;4.13;2.33;;;;;;;29.72;26.85;102351.22;5093367;28;20093;-49
2022/08/07 11:45:11;;;;;;;5.18;2.58;;;;;;;30.46;26.90;102354.47;5091901;28;20051;-47